sensor_id;sensor_type;location;lat;lon;timestamp;pressure;altitude;pressure_sealevel;temperature;humidity
77879;BME280;67071;51.144;17.050;2023-03-16T00:02:54;100767.99;;;0.73;69.12
77879;BME280;67071;51.144;17.050;2023-03-16T00:06:09;100768.91;;;0.73;69.19
77879;BME280;67071;51.144;17.050;2023-03-16T00:09:32;100771.46;;;0.74;69.24
77879;BME280;67071;51.144;17.050;2023-03-16T00:13:06;100776.20;;;0.75;69.32
77879;BME280;67071;51.144;17.050;2023-03-16T00:16:21;100783.37;;;0.75;69.37
77879;BME280;67071;51.144;17.050;2023-03-16T00:19:35;100784.16;;;0.72;69.43
77879;BME280;67071;51.144;17.050;2023-03-16T00:22:50;100782.74;;;0.73;69.49
77879;BME280;67071;51.144;17.050;2023-03-16T00:26:06;100786.54;;;0.71;69.53
77879;BME280;67071;51.144;17.050;2023-03-16T00:29:22;100792.47;;;0.70;69.58
77879;BME280;67071;51.144;17.050;2023-03-16T00:32:37;100792.79;;;0.67;69.64
77879;BME280;67071;51.144;17.050;2023-03-16T00:36:01;100798.08;;;0.64;69.69
77879;BME280;67071;51.144;17.050;2023-03-16T00:39:15;100798.79;;;0.62;69.73
77879;BME280;67071;51.144;17.050;2023-03-16T00:42:33;100800.32;;;0.61;69.78
77879;BME280;67071;51.144;17.050;2023-03-16T00:45:56;100802.25;;;0.59;69.83
77879;BME280;67071;51.144;17.050;2023-03-16T00:49:12;100805.31;;;0.56;69.88
77879;BME280;67071;51.144;17.050;2023-03-16T00:52:27;100806.73;;;0.52;69.94
77879;BME280;67071;51.144;17.050;2023-03-16T00:55:42;100817.14;;;0.47;69.98
77879;BME280;67071;51.144;17.050;2023-03-16T00:58:56;100810.76;;;0.45;70.03
77879;BME280;67071;51.144;17.050;2023-03-16T01:02:12;100806.46;;;0.44;70.07
77879;BME280;67071;51.144;17.050;2023-03-16T01:06:13;100816.30;;;0.43;70.15
77879;BME280;67071;51.144;17.050;2023-03-16T01:09:29;100816.21;;;0.44;70.21
77879;BME280;67071;51.144;17.050;2023-03-16T01:12:44;100822.66;;;0.43;70.26
77879;BME280;67071;51.144;17.050;2023-03-16T01:15:59;100820.17;;;0.41;70.31
77879;BME280;67071;51.144;17.050;2023-03-16T01:19:24;100822.91;;;0.37;70.39
77879;BME280;67071;51.144;17.050;2023-03-16T01:22:39;100829.26;;;0.36;70.44
77879;BME280;67071;51.144;17.050;2023-03-16T01:25:53;100825.56;;;0.34;70.51
77879;BME280;67071;51.144;17.050;2023-03-16T01:29:08;100835.39;;;0.33;70.57
77879;BME280;67071;51.144;17.050;2023-03-16T01:32:23;100832.58;;;0.27;70.63
77879;BME280;67071;51.144;17.050;2023-03-16T01:35:37;100840.20;;;0.30;70.67
77879;BME280;67071;51.144;17.050;2023-03-16T01:38:53;100846.87;;;0.30;70.70
77879;BME280;67071;51.144;17.050;2023-03-16T01:42:08;100848.48;;;0.28;70.75
77879;BME280;67071;51.144;17.050;2023-03-16T01:52:35;100846.12;;;0.29;70.94
77879;BME280;67071;51.144;17.050;2023-03-16T01:55:50;100846.95;;;0.26;71.02
77879;BME280;67071;51.144;17.050;2023-03-16T01:59:15;100854.61;;;0.25;71.08
77879;BME280;67071;51.144;17.050;2023-03-16T02:02:31;100858.62;;;0.29;71.15
77879;BME280;67071;51.144;17.050;2023-03-16T02:06:08;100851.33;;;0.27;71.23
77879;BME280;67071;51.144;17.050;2023-03-16T02:09:25;100851.33;;;0.27;71.32
77879;BME280;67071;51.144;17.050;2023-03-16T02:12:42;100856.27;;;0.26;71.39
77879;BME280;67071;51.144;17.050;2023-03-16T02:15:57;100858.30;;;0.24;71.48
77879;BME280;67071;51.144;17.050;2023-03-16T02:19:19;100861.34;;;0.25;71.56
77879;BME280;67071;51.144;17.050;2023-03-16T02:22:44;100866.68;;;0.25;71.64
77879;BME280;67071;51.144;17.050;2023-03-16T02:32:57;100862.26;;;0.21;71.91
77879;BME280;67071;51.144;17.050;2023-03-16T02:36:39;100867.91;;;0.22;71.98
77879;BME280;67071;51.144;17.050;2023-03-16T02:39:55;100870.94;;;0.19;72.07
77879;BME280;67071;51.144;17.050;2023-03-16T02:43:19;100867.15;;;0.18;72.12
77879;BME280;67071;51.144;17.050;2023-03-16T02:46:34;100879.55;;;0.18;72.19
77879;BME280;67071;51.144;17.050;2023-03-16T02:49:50;100879.14;;;0.18;72.26
77879;BME280;67071;51.144;17.050;2023-03-16T02:53:04;100882.63;;;0.18;72.32
77879;BME280;67071;51.144;17.050;2023-03-16T02:56:23;100883.55;;;0.18;72.39
77879;BME280;67071;51.144;17.050;2023-03-16T02:59:38;100881.18;;;0.08;72.49
77879;BME280;67071;51.144;17.050;2023-03-16T03:02:53;100889.08;;;0.06;72.55
77879;BME280;67071;51.144;17.050;2023-03-16T03:06:10;100884.16;;;0.06;72.61
77879;BME280;67071;51.144;17.050;2023-03-16T03:09:25;100879.91;;;0.04;72.68
77879;BME280;67071;51.144;17.050;2023-03-16T03:12:40;100884.45;;;0.04;72.75
77879;BME280;67071;51.144;17.050;2023-03-16T03:15:54;100890.70;;;0.04;72.80
77879;BME280;67071;51.144;17.050;2023-03-16T03:19:09;100887.88;;;0.01;72.87
77879;BME280;67071;51.144;17.050;2023-03-16T03:22:27;100892.09;;;-0.01;72.94
77879;BME280;67071;51.144;17.050;2023-03-16T03:25:41;100889.30;;;0.00;73.01
77879;BME280;67071;51.144;17.050;2023-03-16T03:28:59;100904.24;;;-0.02;73.07
77879;BME280;67071;51.144;17.050;2023-03-16T03:32:16;100906.10;;;-0.03;73.14
77879;BME280;67071;51.144;17.050;2023-03-16T03:36:05;100909.96;;;-0.05;73.21
77879;BME280;67071;51.144;17.050;2023-03-16T03:39:21;100907.30;;;-0.05;73.27
77879;BME280;67071;51.144;17.050;2023-03-16T03:42:35;100906.58;;;-0.06;73.31
77879;BME280;67071;51.144;17.050;2023-03-16T03:45:57;100907.49;;;-0.07;73.37
77879;BME280;67071;51.144;17.050;2023-03-16T03:49:14;100908.91;;;-0.07;73.43
77879;BME280;67071;51.144;17.050;2023-03-16T03:52:28;100910.52;;;-0.10;73.47
77879;BME280;67071;51.144;17.050;2023-03-16T03:55:43;100908.89;;;-0.11;73.52
77879;BME280;67071;51.144;17.050;2023-03-16T03:59:03;100909.16;;;-0.13;73.55
77879;BME280;67071;51.144;17.050;2023-03-16T04:02:19;100908.41;;;-0.14;73.61
77879;BME280;67071;51.144;17.050;2023-03-16T04:05:34;100913.85;;;-0.15;73.64
77879;BME280;67071;51.144;17.050;2023-03-16T04:08:50;100914.02;;;-0.16;73.68
77879;BME280;67071;51.144;17.050;2023-03-16T04:12:05;100912.38;;;-0.17;73.74
77879;BME280;67071;51.144;17.050;2023-03-16T04:15:22;100915.25;;;-0.19;73.78
77879;BME280;67071;51.144;17.050;2023-03-16T04:18:37;100920.47;;;-0.18;73.82
77879;BME280;67071;51.144;17.050;2023-03-16T04:21:58;100925.80;;;-0.18;73.87
77879;BME280;67071;51.144;17.050;2023-03-16T04:25:14;100925.56;;;-0.20;73.91
77879;BME280;67071;51.144;17.050;2023-03-16T04:28:31;100924.84;;;-0.21;73.96
77879;BME280;67071;51.144;17.050;2023-03-16T04:31:46;100934.02;;;-0.24;74.00
77879;BME280;67071;51.144;17.050;2023-03-16T04:35:01;100938.44;;;-0.23;74.02
77879;BME280;67071;51.144;17.050;2023-03-16T04:38:17;100938.49;;;-0.27;74.06
77879;BME280;67071;51.144;17.050;2023-03-16T04:41:32;100941.65;;;-0.28;74.09
77879;BME280;67071;51.144;17.050;2023-03-16T04:44:52;100949.51;;;-0.30;74.14
77879;BME280;67071;51.144;17.050;2023-03-16T04:48:06;100951.78;;;-0.31;74.18
77879;BME280;67071;51.144;17.050;2023-03-16T04:51:21;100954.45;;;-0.31;74.21
77879;BME280;67071;51.144;17.050;2023-03-16T04:54:36;100951.17;;;-0.29;74.24
77879;BME280;67071;51.144;17.050;2023-03-16T04:57:51;100955.89;;;-0.28;74.30
77879;BME280;67071;51.144;17.050;2023-03-16T05:01:07;100961.63;;;-0.28;74.33
77879;BME280;67071;51.144;17.050;2023-03-16T05:04:23;100952.87;;;-0.25;74.38
77879;BME280;67071;51.144;17.050;2023-03-16T05:07:41;100961.50;;;-0.23;74.40
77879;BME280;67071;51.144;17.050;2023-03-16T05:10:57;100953.73;;;-0.21;74.46
77879;BME280;67071;51.144;17.050;2023-03-16T05:14:16;100960.53;;;-0.19;74.50
77879;BME280;67071;51.144;17.050;2023-03-16T05:17:31;100965.41;;;-0.12;74.54
77879;BME280;67071;51.144;17.050;2023-03-16T05:20:51;100968.13;;;-0.09;74.59
77879;BME280;67071;51.144;17.050;2023-03-16T05:24:07;100965.86;;;-0.01;74.62
77879;BME280;67071;51.144;17.050;2023-03-16T05:27:24;100964.80;;;0.04;74.66
77879;BME280;67071;51.144;17.050;2023-03-16T05:30:39;100970.18;;;0.11;74.70
77879;BME280;67071;51.144;17.050;2023-03-16T05:34:03;100968.09;;;0.17;74.74
77879;BME280;67071;51.144;17.050;2023-03-16T05:37:18;100972.17;;;0.23;74.77
77879;BME280;67071;51.144;17.050;2023-03-16T05:40:32;100969.37;;;0.31;74.80
77879;BME280;67071;51.144;17.050;2023-03-16T05:43:47;100969.59;;;0.40;74.83
77879;BME280;67071;51.144;17.050;2023-03-16T05:47:02;100966.66;;;0.46;74.87
77879;BME280;67071;51.144;17.050;2023-03-16T05:50:18;100973.81;;;0.53;74.89
77879;BME280;67071;51.144;17.050;2023-03-16T05:53:34;100976.34;;;0.61;74.91
77879;BME280;67071;51.144;17.050;2023-03-16T05:56:49;100982.53;;;0.64;74.94
77879;BME280;67071;51.144;17.050;2023-03-16T06:00:12;100986.10;;;0.71;74.96
77879;BME280;67071;51.144;17.050;2023-03-16T06:03:30;100989.83;;;0.77;74.97
77879;BME280;67071;51.144;17.050;2023-03-16T06:06:45;100989.28;;;0.85;75.00
77879;BME280;67071;51.144;17.050;2023-03-16T06:09:59;100998.48;;;0.93;75.01
77879;BME280;67071;51.144;17.050;2023-03-16T06:13:20;101002.91;;;0.96;75.02
77879;BME280;67071;51.144;17.050;2023-03-16T06:16:35;101008.04;;;1.08;75.04
77879;BME280;67071;51.144;17.050;2023-03-16T06:19:50;101010.82;;;1.18;75.05
77879;BME280;67071;51.144;17.050;2023-03-16T06:23:05;101018.84;;;1.25;75.07
77879;BME280;67071;51.144;17.050;2023-03-16T06:26:20;101022.48;;;1.28;75.07
77879;BME280;67071;51.144;17.050;2023-03-16T06:29:35;101018.38;;;1.29;75.12
77879;BME280;67071;51.144;17.050;2023-03-16T06:32:54;101027.77;;;1.49;75.09
77879;BME280;67071;51.144;17.050;2023-03-16T06:36:10;101026.08;;;1.58;75.08
77879;BME280;67071;51.144;17.050;2023-03-16T06:39:25;101025.51;;;1.66;75.11
77879;BME280;67071;51.144;17.050;2023-03-16T06:42:40;101027.80;;;1.76;75.10
77879;BME280;67071;51.144;17.050;2023-03-16T06:45:55;101026.13;;;1.89;75.10
77879;BME280;67071;51.144;17.050;2023-03-16T06:49:10;101032.35;;;1.96;75.11
77879;BME280;67071;51.144;17.050;2023-03-16T06:52:24;101029.00;;;2.04;75.11
77879;BME280;67071;51.144;17.050;2023-03-16T06:55:40;101029.28;;;2.22;75.10
77879;BME280;67071;51.144;17.050;2023-03-16T06:58:55;101034.71;;;2.22;75.08
77879;BME280;67071;51.144;17.050;2023-03-16T07:02:14;101036.11;;;2.38;75.09
77879;BME280;67071;51.144;17.050;2023-03-16T07:05:33;101042.11;;;2.46;75.07
77879;BME280;67071;51.144;17.050;2023-03-16T07:08:48;101041.11;;;2.61;75.05
77879;BME280;67071;51.144;17.050;2023-03-16T07:12:03;101044.82;;;2.66;75.03
77879;BME280;67071;51.144;17.050;2023-03-16T07:15:20;101048.13;;;2.62;75.00
77879;BME280;67071;51.144;17.050;2023-03-16T07:18:38;101049.29;;;2.79;74.96
77879;BME280;67071;51.144;17.050;2023-03-16T07:21:59;101043.33;;;2.87;74.92
77879;BME280;67071;51.144;17.050;2023-03-16T07:25:16;101056.63;;;3.01;74.88
77879;BME280;67071;51.144;17.050;2023-03-16T07:28:34;101058.08;;;3.13;74.83
77879;BME280;67071;51.144;17.050;2023-03-16T07:31:49;101054.98;;;3.20;74.76
77879;BME280;67071;51.144;17.050;2023-03-16T07:35:10;101056.03;;;3.28;74.71
77879;BME280;67071;51.144;17.050;2023-03-16T07:38:26;101073.45;;;3.35;74.63
77879;BME280;67071;51.144;17.050;2023-03-16T07:41:41;101064.05;;;3.48;74.53
77879;BME280;67071;51.144;17.050;2023-03-16T07:44:56;101062.27;;;3.64;74.46
77879;BME280;67071;51.144;17.050;2023-03-16T07:48:11;101067.72;;;3.76;74.38
77879;BME280;67071;51.144;17.050;2023-03-16T07:51:30;101067.92;;;3.82;74.28
77879;BME280;67071;51.144;17.050;2023-03-16T07:54:53;101064.83;;;3.88;74.16
77879;BME280;67071;51.144;17.050;2023-03-16T07:58:12;101069.83;;;4.06;74.06
77879;BME280;67071;51.144;17.050;2023-03-16T08:01:37;101066.89;;;4.18;73.92
77879;BME280;67071;51.144;17.050;2023-03-16T08:04:56;101065.80;;;4.35;73.75
77879;BME280;67071;51.144;17.050;2023-03-16T08:08:11;101073.55;;;4.31;73.65
77879;BME280;67071;51.144;17.050;2023-03-16T08:11:26;101073.82;;;4.38;73.44
77879;BME280;67071;51.144;17.050;2023-03-16T08:14:41;101073.53;;;4.56;73.28
77879;BME280;67071;51.144;17.050;2023-03-16T08:18:01;101081.91;;;4.76;73.07
77879;BME280;67071;51.144;17.050;2023-03-16T08:21:17;101080.66;;;4.75;72.85
77879;BME280;67071;51.144;17.050;2023-03-16T08:24:44;101083.47;;;4.71;72.60
77879;BME280;67071;51.144;17.050;2023-03-16T08:27:59;101083.05;;;4.90;72.32
77879;BME280;67071;51.144;17.050;2023-03-16T08:31:14;101082.82;;;5.10;72.05
77879;BME280;67071;51.144;17.050;2023-03-16T08:34:30;101080.79;;;5.18;71.75
77879;BME280;67071;51.144;17.050;2023-03-16T08:37:46;101081.21;;;5.31;71.45
77879;BME280;67071;51.144;17.050;2023-03-16T08:41:05;101088.03;;;5.46;71.09
77879;BME280;67071;51.144;17.050;2023-03-16T08:44:20;101099.62;;;5.43;70.74
77879;BME280;67071;51.144;17.050;2023-03-16T08:47:42;101100.27;;;5.63;70.29
77879;BME280;67071;51.144;17.050;2023-03-16T08:51:03;101104.84;;;5.87;69.88
77879;BME280;67071;51.144;17.050;2023-03-16T08:54:21;101097.55;;;6.12;69.44
77879;BME280;67071;51.144;17.050;2023-03-16T08:57:40;101097.76;;;6.20;68.95
77879;BME280;67071;51.144;17.050;2023-03-16T09:00:59;101105.62;;;6.30;68.49
77879;BME280;67071;51.144;17.050;2023-03-16T09:04:20;101103.27;;;6.37;67.99
77879;BME280;67071;51.144;17.050;2023-03-16T09:07:37;101099.37;;;6.51;67.48
77879;BME280;67071;51.144;17.050;2023-03-16T09:11:03;101091.39;;;6.89;66.96
77879;BME280;67071;51.144;17.050;2023-03-16T09:14:20;101101.39;;;7.00;66.42
77879;BME280;67071;51.144;17.050;2023-03-16T09:17:45;101100.85;;;6.95;65.86
77879;BME280;67071;51.144;17.050;2023-03-16T09:21:06;101096.04;;;7.18;65.28
77879;BME280;67071;51.144;17.050;2023-03-16T09:24:23;101093.29;;;7.36;64.70
77879;BME280;67071;51.144;17.050;2023-03-16T09:27:40;101096.67;;;7.31;63.99
77879;BME280;67071;51.144;17.050;2023-03-16T09:30:59;101089.19;;;7.45;63.36
77879;BME280;67071;51.144;17.050;2023-03-16T09:34:24;101101.88;;;7.68;62.66
77879;BME280;67071;51.144;17.050;2023-03-16T09:37:39;101099.34;;;8.10;61.93
77879;BME280;67071;51.144;17.050;2023-03-16T09:41:08;101092.53;;;8.30;61.21
77879;BME280;67071;51.144;17.050;2023-03-16T09:47:57;101098.48;;;8.30;59.58
77879;BME280;67071;51.144;17.050;2023-03-16T09:51:27;101089.52;;;8.61;58.83
77879;BME280;67071;51.144;17.050;2023-03-16T09:54:56;101101.35;;;8.85;58.02
77879;BME280;67071;51.144;17.050;2023-03-16T09:58:19;101098.39;;;9.07;57.27
77879;BME280;67071;51.144;17.050;2023-03-16T10:01:49;101093.03;;;9.48;56.55
77879;BME280;67071;51.144;17.050;2023-03-16T10:05:15;101101.42;;;9.66;55.81
77879;BME280;67071;51.144;17.050;2023-03-16T10:08:42;101105.27;;;10.22;55.01
77879;BME280;67071;51.144;17.050;2023-03-16T10:12:00;101105.88;;;10.81;54.35
77879;BME280;67071;51.144;17.050;2023-03-16T10:15:21;101120.14;;;10.60;53.56
77879;BME280;67071;51.144;17.050;2023-03-16T10:18:42;101110.84;;;10.43;52.62
77879;BME280;67071;51.144;17.050;2023-03-16T10:22:02;101114.16;;;10.58;51.85
77879;BME280;67071;51.144;17.050;2023-03-16T10:29:05;101112.46;;;10.12;50.24
77879;BME280;67071;51.144;17.050;2023-03-16T10:32:30;101107.77;;;9.99;49.53
77879;BME280;67071;51.144;17.050;2023-03-16T10:36:01;101101.33;;;9.77;48.77
77879;BME280;67071;51.144;17.050;2023-03-16T10:39:21;101106.49;;;9.29;48.10
77879;BME280;67071;51.144;17.050;2023-03-16T10:42:39;101101.31;;;9.94;47.71
77879;BME280;67071;51.144;17.050;2023-03-16T10:46:01;101102.83;;;10.99;47.42
77879;BME280;67071;51.144;17.050;2023-03-16T10:49:25;101099.23;;;11.33;47.01
77879;BME280;67071;51.144;17.050;2023-03-16T10:52:46;101096.70;;;10.71;46.17
77879;BME280;67071;51.144;17.050;2023-03-16T10:56:12;101104.73;;;10.23;45.54
77879;BME280;67071;51.144;17.050;2023-03-16T10:59:34;101104.56;;;10.72;45.07
77879;BME280;67071;51.144;17.050;2023-03-16T11:02:57;101095.33;;;11.88;44.79
77879;BME280;67071;51.144;17.050;2023-03-16T11:06:23;101093.59;;;13.09;44.30
77879;BME280;67071;51.144;17.050;2023-03-16T11:09:47;101089.24;;;13.93;43.25
77879;BME280;67071;51.144;17.050;2023-03-16T11:13:14;101095.79;;;14.00;42.26
77879;BME280;67071;51.144;17.050;2023-03-16T11:16:47;101084.55;;;14.39;41.08
77879;BME280;67071;51.144;17.050;2023-03-16T11:20:17;101091.95;;;15.31;40.15
77879;BME280;67071;51.144;17.050;2023-03-16T11:23:38;101087.74;;;15.65;39.05
77879;BME280;67071;51.144;17.050;2023-03-16T11:26:57;101082.83;;;15.94;37.56
77879;BME280;67071;51.144;17.050;2023-03-16T11:33:56;101080.84;;;17.47;35.05
77879;BME280;67071;51.144;17.050;2023-03-16T11:45:40;101078.11;;;19.55;31.36
77879;BME280;67071;51.144;17.050;2023-03-16T11:56:57;101052.10;;;22.32;28.57
77879;BME280;67071;51.144;17.050;2023-03-16T12:03:51;101065.41;;;23.13;26.22
77879;BME280;67071;51.144;17.050;2023-03-16T12:17:41;101045.10;;;21.93;24.78
77879;BME280;67071;51.144;17.050;2023-03-16T12:21:01;101052.83;;;22.64;24.25
77879;BME280;67071;51.144;17.050;2023-03-16T12:24:21;101054.09;;;22.92;23.22
77879;BME280;67071;51.144;17.050;2023-03-16T12:27:40;101052.19;;;23.56;22.55
77879;BME280;67071;51.144;17.050;2023-03-16T12:48:30;101045.98;;;22.91;20.21
77879;BME280;67071;51.144;17.050;2023-03-16T12:51:57;101041.52;;;21.52;20.74
77879;BME280;67071;51.144;17.050;2023-03-16T12:58:56;101041.70;;;18.26;22.36
77879;BME280;67071;51.144;17.050;2023-03-16T13:02:17;101049.92;;;16.39;23.04
77879;BME280;67071;51.144;17.050;2023-03-16T13:05:57;101044.63;;;19.84;23.24
77879;BME280;67071;51.144;17.050;2023-03-16T13:09:24;101051.13;;;22.13;22.61
77879;BME280;67071;51.144;17.050;2023-03-16T13:12:42;101046.08;;;23.73;21.77
77879;BME280;67071;51.144;17.050;2023-03-16T13:16:31;101045.62;;;22.28;21.06
77879;BME280;67071;51.144;17.050;2023-03-16T13:27:09;101040.05;;;23.42;21.02
77879;BME280;67071;51.144;17.050;2023-03-16T13:30:32;101042.09;;;24.77;20.70
77879;BME280;67071;51.144;17.050;2023-03-16T13:33:55;101044.52;;;25.32;19.63
77879;BME280;67071;51.144;17.050;2023-03-16T13:37:18;101037.80;;;25.06;18.92
77879;BME280;67071;51.144;17.050;2023-03-16T13:40:37;101037.66;;;25.48;18.79
77879;BME280;67071;51.144;17.050;2023-03-16T13:44:00;101037.95;;;26.17;18.10
77879;BME280;67071;51.144;17.050;2023-03-16T13:47:19;101047.13;;;25.53;17.90
77879;BME280;67071;51.144;17.050;2023-03-16T13:50:37;101047.91;;;23.52;17.91
77879;BME280;67071;51.144;17.050;2023-03-16T13:57:28;101043.48;;;23.08;19.31
77879;BME280;67071;51.144;17.050;2023-03-16T14:00:44;101044.34;;;24.25;18.83
77879;BME280;67071;51.144;17.050;2023-03-16T14:04:11;101040.00;;;25.06;18.64
77879;BME280;67071;51.144;17.050;2023-03-16T14:07:36;101037.79;;;25.59;18.07
77879;BME280;67071;51.144;17.050;2023-03-16T14:11:11;101046.99;;;25.42;17.60
77879;BME280;67071;51.144;17.050;2023-03-16T14:14:31;101029.60;;;24.83;17.34
77879;BME280;67071;51.144;17.050;2023-03-16T14:17:53;101039.30;;;25.64;17.59
77879;BME280;67071;51.144;17.050;2023-03-16T14:21:24;101026.45;;;26.42;17.38
77879;BME280;67071;51.144;17.050;2023-03-16T14:24:43;101020.96;;;26.79;17.21
77879;BME280;67071;51.144;17.050;2023-03-16T14:28:06;101023.02;;;26.57;16.96
77879;BME280;67071;51.144;17.050;2023-03-16T14:31:21;101019.88;;;26.93;17.03
77879;BME280;67071;51.144;17.050;2023-03-16T14:34:38;101007.18;;;25.57;16.76
77879;BME280;67071;51.144;17.050;2023-03-16T14:37:56;101000.77;;;25.69;17.25
77879;BME280;67071;51.144;17.050;2023-03-16T14:41:21;100998.03;;;26.08;17.44
77879;BME280;67071;51.144;17.050;2023-03-16T14:44:41;100996.16;;;25.25;17.19
77879;BME280;67071;51.144;17.050;2023-03-16T14:48:05;100993.32;;;24.75;17.34
77879;BME280;67071;51.144;17.050;2023-03-16T14:51:21;100995.99;;;24.61;17.38
77879;BME280;67071;51.144;17.050;2023-03-16T14:54:36;100999.48;;;26.04;17.63
77879;BME280;67071;51.144;17.050;2023-03-16T14:57:56;100998.05;;;26.18;17.18
77879;BME280;67071;51.144;17.050;2023-03-16T15:01:15;100995.55;;;26.38;17.25
77879;BME280;67071;51.144;17.050;2023-03-16T15:04:33;100996.27;;;25.64;17.12
77879;BME280;67071;51.144;17.050;2023-03-16T15:07:52;100995.61;;;25.85;17.18
77879;BME280;67071;51.144;17.050;2023-03-16T15:11:10;100988.84;;;25.76;17.14
77879;BME280;67071;51.144;17.050;2023-03-16T15:14:30;100995.83;;;24.93;17.11
77879;BME280;67071;51.144;17.050;2023-03-16T15:18:04;100999.04;;;24.07;17.17
77879;BME280;67071;51.144;17.050;2023-03-16T15:21:28;100992.48;;;24.43;17.43
77879;BME280;67071;51.144;17.050;2023-03-16T15:24:43;101000.72;;;24.04;17.46
77879;BME280;67071;51.144;17.050;2023-03-16T15:27:58;100999.13;;;23.70;17.53
77879;BME280;67071;51.144;17.050;2023-03-16T15:31:16;100997.80;;;23.78;17.79
77879;BME280;67071;51.144;17.050;2023-03-16T15:34:33;100999.69;;;23.41;17.90
77879;BME280;67071;51.144;17.050;2023-03-16T15:37:47;101001.45;;;23.52;18.01
77879;BME280;67071;51.144;17.050;2023-03-16T15:41:10;100997.08;;;23.79;17.94
77879;BME280;67071;51.144;17.050;2023-03-16T15:44:59;100998.27;;;24.08;17.97
77879;BME280;67071;51.144;17.050;2023-03-16T15:48:15;101001.41;;;24.03;17.99
77879;BME280;67071;51.144;17.050;2023-03-16T15:51:31;101001.90;;;23.48;17.88
77879;BME280;67071;51.144;17.050;2023-03-16T15:54:48;101002.41;;;23.09;18.09
77879;BME280;67071;51.144;17.050;2023-03-16T15:58:04;101003.43;;;23.20;18.31
77879;BME280;67071;51.144;17.050;2023-03-16T16:01:25;101006.27;;;22.75;18.28
77879;BME280;67071;51.144;17.050;2023-03-16T16:04:58;101003.63;;;22.68;18.48
77879;BME280;67071;51.144;17.050;2023-03-16T16:08:13;101006.05;;;22.51;18.57
77879;BME280;67071;51.144;17.050;2023-03-16T16:11:27;101004.74;;;22.13;18.64
77879;BME280;67071;51.144;17.050;2023-03-16T16:14:52;101001.13;;;21.79;18.98
77879;BME280;67071;51.144;17.050;2023-03-16T16:18:25;101004.32;;;21.01;19.33
77879;BME280;67071;51.144;17.050;2023-03-16T16:22:03;101000.47;;;20.24;19.76
77879;BME280;67071;51.144;17.050;2023-03-16T16:25:19;101009.99;;;19.79;20.15
77879;BME280;67071;51.144;17.050;2023-03-16T16:28:35;101005.65;;;19.44;20.48
77879;BME280;67071;51.144;17.050;2023-03-16T16:31:50;101011.95;;;19.12;20.79
77879;BME280;67071;51.144;17.050;2023-03-16T16:35:15;101009.97;;;18.61;21.15
77879;BME280;67071;51.144;17.050;2023-03-16T16:38:32;101011.37;;;17.70;21.61
77879;BME280;67071;51.144;17.050;2023-03-16T16:41:49;101006.39;;;16.52;22.07
77879;BME280;67071;51.144;17.050;2023-03-16T16:45:07;101012.79;;;15.26;22.71
77879;BME280;67071;51.144;17.050;2023-03-16T16:51:52;101016.28;;;13.57;24.90
77879;BME280;67071;51.144;17.050;2023-03-16T16:55:08;101017.46;;;12.73;25.91
77879;BME280;67071;51.144;17.050;2023-03-16T16:58:26;101015.54;;;11.96;26.66
77879;BME280;67071;51.144;17.050;2023-03-16T17:01:41;101019.59;;;11.34;27.40
77879;BME280;67071;51.144;17.050;2023-03-16T17:04:58;101026.35;;;10.73;28.26
77879;BME280;67071;51.144;17.050;2023-03-16T17:08:13;101028.41;;;10.09;29.11
77879;BME280;67071;51.144;17.050;2023-03-16T17:11:29;101020.97;;;9.61;29.72
77879;BME280;67071;51.144;17.050;2023-03-16T17:14:50;101024.62;;;9.25;30.32
77879;BME280;67071;51.144;17.050;2023-03-16T17:18:11;101027.38;;;8.83;31.07
77879;BME280;67071;51.144;17.050;2023-03-16T17:21:48;101026.18;;;8.40;31.82
77879;BME280;67071;51.144;17.050;2023-03-16T17:25:04;101028.89;;;8.03;32.55
77879;BME280;67071;51.144;17.050;2023-03-16T17:28:19;101034.90;;;7.76;33.26
77879;BME280;67071;51.144;17.050;2023-03-16T17:31:38;101032.72;;;7.52;33.86
77879;BME280;67071;51.144;17.050;2023-03-16T17:35:04;101031.21;;;7.33;34.38
77879;BME280;67071;51.144;17.050;2023-03-16T17:38:26;101043.19;;;7.11;34.88
77879;BME280;67071;51.144;17.050;2023-03-16T17:41:42;101047.40;;;6.86;35.32
77879;BME280;67071;51.144;17.050;2023-03-16T17:44:57;101042.51;;;6.65;35.98
77879;BME280;67071;51.144;17.050;2023-03-16T17:48:20;101044.42;;;6.46;36.53
77879;BME280;67071;51.144;17.050;2023-03-16T17:51:37;101048.59;;;6.28;36.97
77879;BME280;67071;51.144;17.050;2023-03-16T17:54:52;101052.24;;;6.18;37.36
77879;BME280;67071;51.144;17.050;2023-03-16T18:01:34;101055.18;;;5.83;38.12
77879;BME280;67071;51.144;17.050;2023-03-16T18:04:51;101052.98;;;5.68;38.48
77879;BME280;67071;51.144;17.050;2023-03-16T18:08:14;101057.85;;;5.56;38.81
77879;BME280;67071;51.144;17.050;2023-03-16T18:11:57;101062.78;;;5.47;39.13
77879;BME280;67071;51.144;17.050;2023-03-16T18:15:16;101062.37;;;5.34;39.38
77879;BME280;67071;51.144;17.050;2023-03-16T18:18:36;101063.70;;;5.22;39.66
77879;BME280;67071;51.144;17.050;2023-03-16T18:21:52;101059.89;;;5.08;39.98
77879;BME280;67071;51.144;17.050;2023-03-16T18:25:27;101061.63;;;4.96;40.31
77879;BME280;67071;51.144;17.050;2023-03-16T18:28:52;101059.50;;;4.89;40.66
77879;BME280;67071;51.144;17.050;2023-03-16T18:32:30;101060.36;;;4.83;40.98
77879;BME280;67071;51.144;17.050;2023-03-16T18:35:56;101067.87;;;4.74;41.36
77879;BME280;67071;51.144;17.050;2023-03-16T18:39:18;101065.73;;;4.67;41.68
77879;BME280;67071;51.144;17.050;2023-03-16T18:42:36;101069.31;;;4.54;41.96
77879;BME280;67071;51.144;17.050;2023-03-16T18:45:51;101062.14;;;4.45;42.22
77879;BME280;67071;51.144;17.050;2023-03-16T18:49:18;101056.09;;;4.37;42.49
77879;BME280;67071;51.144;17.050;2023-03-16T18:52:43;101054.59;;;4.23;42.78